< < Back
Terminal Aerodrome Forecast


Current Version              Previous Versions:   1  2  3  4  5  6  7  8  9  

Terminal Aerodrome Forecast

553
FTUS44 KMOB 211500 AAA
TAFMOB
TAF AMD
KMOB 211518Z 2115/2212 06007KT P6SM OVC015
      TEMPO 2115/2118 4SM BR OVC009
     FM220600 08004KT 4SM BR OVC007
     FM220900 10003KT 2SM BR OVC004=

Latest METAR

543
SAUS80 KWBC 220700 CCA
MTRMOB
METAR KMOB 220656Z AUTO 09006KT 9SM OVC004 12/12 A2996 RMK AO2 SLP142
T01220122 $


USA.gov is the U.S. government's official web portal to all federal, state and local government web resources and services.